Platte, Nebraska
Current Conditions -  °F | °C
As of 1:53 PM on Saturday 20 Dec 2014 (Local Time) from KHSI Reporting Station
Clear Clear  
Wind Chill:   Ceiling: Unl
Heat Index:   Visibility: 10mi
Dew Point:   Wind: 7mph
Humidity: 70%   Direction: 190°S
Pressure: 29.98"   Gusts: NA
Location:  40.6115°N, 98.6672°W
Report Text: KHSI 201953Z AUTO 19006KT 10SM CLR 05/00 A2998 RMK AO2 SLP168 T00500000
Loading
Personal Weather Stations






























Interactive Weather Map New forecast layout! Learn more

10-Day Weather Forecast

Advertisements
Track Severe Weather on mobile